Time;durP1;ratioP1;P1;durP2;ratioP2;P2;SDS_P1;SDS_P2;PMS_P1;PMS_P2;Temp;Humidity;BMP_temperature;BMP_pressure;BME280_temperature;BME280_humidity;BME280_pressure;Samples;Min_cycle;Max_cycle;Signal;HPM_P1;HPM_P2
2021/09/11 00:00:15;;;;;;;;;7.00;4.50;;;;;;;;5058091;28;45633;-79
2021/09/11 00:02:41;;;;;;;;;3.00;3.00;;;;;;;;5060457;28;47216;-79
2021/09/11 00:05:06;;;;;;;;;5.00;5.00;;;;;;;;5070314;28;45405;-79
2021/09/11 00:07:32;;;;;;;;;4.75;4.75;;;;;;;;5060002;28;45461;-79
2021/09/11 00:09:57;;;;;;;;;4.00;4.00;;;;;;;;5065495;28;45566;-79
2021/09/11 00:12:22;;;;;;;;;5.00;4.33;;;;;;;;5075889;28;47499;-79
2021/09/11 00:14:47;;;;;;;;;4.00;3.00;;;;;;;;5077932;28;45464;-79
2021/09/11 00:17:13;;;;;;;;;3.00;3.00;;;;;;;;5077081;28;45478;-79
2021/09/11 00:19:38;;;;;;;;;4.67;4.33;;;;;;;;5079114;28;45411;-79
2021/09/11 00:22:03;;;;;;;;;4.67;4.00;;;;;;;;5078375;28;47494;-79
2021/09/11 00:24:28;;;;;;;;;4.00;3.00;;;;;;;;5066539;28;45429;-79
2021/09/11 00:26:55;;;;;;;;;4.33;3.00;;;;;;;;5059542;28;45298;-79
2021/09/11 00:29:20;;;;;;;;;4.50;4.00;;;;;;;;5059527;28;45158;-79
2021/09/11 00:31:45;;;;;;;;;4.50;3.50;;;;;;;;5059539;28;45146;-79
2021/09/11 00:34:11;;;;;;;;;3.33;3.00;;;;;;;;5058190;28;45210;-79
2021/09/11 00:36:36;;;;;;;;;3.00;3.00;;;;;;;;5061916;28;45275;-79
2021/09/11 00:39:01;;;;;;;;;4.33;4.33;;;;;;;;5061818;28;45540;-79
2021/09/11 00:41:27;;;;;;;;;4.25;4.00;;;;;;;;5065024;28;48064;-79
2021/09/11 00:43:52;;;;;;;;;3.75;3.25;;;;;;;;5062533;28;46876;-80
2021/09/11 00:46:18;;;;;;;;;5.00;4.25;;;;;;;;5062124;28;45331;-79
2021/09/11 00:48:43;;;;;;;;;5.25;3.75;;;;;;;;5061278;28;45245;-80
2021/09/11 00:51:10;;;;;;;;;4.50;3.25;;;;;;;;5061344;28;45967;-79
2021/09/11 00:53:36;;;;;;;;;6.00;4.50;;;;;;;;5062760;28;45417;-79
2021/09/11 00:56:01;;;;;;;;;3.00;3.00;;;;;;;;5067874;28;45347;-79
2021/09/11 00:58:27;;;;;;;;;4.00;4.00;;;;;;;;5061350;28;45975;-79
2021/09/11 01:00:52;;;;;;;;;4.75;4.25;;;;;;;;5060523;28;47100;-79
2021/09/11 01:03:17;;;;;;;;;9.00;5.00;;;;;;;;5060499;28;45700;-79
2021/09/11 01:05:44;;;;;;;;;5.00;5.00;;;;;;;;5061334;28;45432;-79
2021/09/11 01:08:09;;;;;;;;;7.00;4.75;;;;;;;;5062695;28;45558;-78
2021/09/11 01:10:37;;;;;;;;;5.00;4.00;;;;;;;;5071090;28;47208;-78
2021/09/11 01:13:02;;;;;;;;;4.00;4.00;;;;;;;;5078975;28;45718;-78
2021/09/11 01:15:31;;;;;;;;;4.75;4.00;;;;;;;;5061250;28;45257;-78
2021/09/11 01:17:57;;;;;;;;;4.00;4.00;;;;;;;;5062788;28;45264;-78
2021/09/11 01:20:22;;;;;;;;;6.00;4.00;;;;;;;;5060899;28;46976;-78
2021/09/11 01:22:47;;;;;;;;;4.50;4.00;;;;;;;;5064864;28;45396;-77
2021/09/11 01:25:12;;;;;;;;;2.00;2.00;;;;;;;;5063736;28;45396;-78
2021/09/11 01:27:38;;;;;;;;;3.50;3.00;;;;;;;;5065049;28;45660;-77
2021/09/11 01:30:05;;;;;;;;;3.00;3.00;;;;;;;;5071300;28;46186;-77
2021/09/11 01:32:31;;;;;;;;;4.75;4.25;;;;;;;;5062175;28;45168;-78
2021/09/11 01:34:56;;;;;;;;;3.75;3.75;;;;;;;;5062046;28;45198;-78
2021/09/11 01:37:22;;;;;;;;;4.00;4.00;;;;;;;;5061906;28;45540;-78
2021/09/11 01:39:48;;;;;;;;;2.25;2.25;;;;;;;;5060584;28;48162;-78
2021/09/11 01:42:16;;;;;;;;;6.25;3.50;;;;;;;;5061942;28;45495;-78
2021/09/11 01:45:02;;;;;;;;;4.75;3.00;;;;;;;;5062178;28;45452;-78
2021/09/11 01:47:27;;;;;;;;;4.50;4.00;;;;;;;;5061639;28;45437;-78
2021/09/11 01:49:53;;;;;;;;;5.00;3.25;;;;;;;;5060274;28;46950;-78
2021/09/11 01:52:20;;;;;;;;;1.50;1.00;;;;;;;;5061753;28;45427;-77
2021/09/11 01:54:45;;;;;;;;;4.00;4.00;;;;;;;;5061013;28;45234;-77
2021/09/11 01:57:11;;;;;;;;;4.00;4.00;;;;;;;;5070468;28;45129;-77
2021/09/11 01:59:37;;;;;;;;;7.25;3.00;;;;;;;;5061406;28;45398;-77
2021/09/11 02:02:03;;;;;;;;;2.25;2.25;;;;;;;;5059400;28;45435;-77
2021/09/11 02:04:28;;;;;;;;;3.25;3.25;;;;;;;;5061636;28;45284;-77
2021/09/11 02:06:53;;;;;;;;;4.00;4.00;;;;;;;;5062669;28;45199;-78
2021/09/11 02:09:19;;;;;;;;;4.25;3.75;;;;;;;;5063356;28;47254;-78
2021/09/11 02:11:44;;;;;;;;;3.25;3.25;;;;;;;;5083011;28;45367;-79
2021/09/11 02:14:09;;;;;;;;;4.00;2.75;;;;;;;;5068726;28;45397;-79
2021/09/11 02:16:34;;;;;;;;;3.75;3.75;;;;;;;;5061466;28;45572;-78
2021/09/11 02:19:00;;;;;;;;;3.33;3.33;;;;;;;;5074042;28;46131;-78
2021/09/11 02:21:25;;;;;;;;;4.00;3.00;;;;;;;;5061902;28;45344;-78
2021/09/11 02:23:50;;;;;;;;;2.33;2.33;;;;;;;;5061593;28;45225;-78
2021/09/11 02:26:16;;;;;;;;;5.33;3.67;;;;;;;;5059926;28;46095;-78
2021/09/11 02:28:43;;;;;;;;;3.50;3.50;;;;;;;;5060210;28;48396;-77
2021/09/11 02:31:08;;;;;;;;;4.00;3.00;;;;;;;;5062806;28;45647;-77
2021/09/11 02:33:33;;;;;;;;;5.00;3.00;;;;;;;;5061938;28;45457;-78
2021/09/11 02:35:58;;;;;;;;;6.00;4.33;;;;;;;;5062821;28;45393;-78
2021/09/11 02:38:24;;;;;;;;;6.00;2.67;;;;;;;;5065079;28;45631;-78
2021/09/11 02:40:49;;;;;;;;;3.25;3.25;;;;;;;;5064239;28;45159;-79
2021/09/11 02:43:14;;;;;;;;;1.67;1.67;;;;;;;;5064817;28;45181;-78
2021/09/11 02:45:39;;;;;;;;;5.50;3.00;;;;;;;;5066475;28;45237;-78
2021/09/11 02:48:05;;;;;;;;;1.67;1.67;;;;;;;;5066183;28;46063;-78
2021/09/11 02:50:30;;;;;;;;;3.00;3.00;;;;;;;;5066264;28;45405;-78
2021/09/11 02:52:55;;;;;;;;;2.50;2.50;;;;;;;;5063360;28;45325;-78
2021/09/11 02:55:20;;;;;;;;;5.50;3.75;;;;;;;;5064469;28;45206;-78
2021/09/11 02:57:46;;;;;;;;;3.50;3.50;;;;;;;;5070281;28;45191;-78
2021/09/11 03:00:11;;;;;;;;;3.33;3.33;;;;;;;;5060129;28;45335;-78
2021/09/11 03:02:36;;;;;;;;;8.00;4.75;;;;;;;;5058920;28;45402;-78
2021/09/11 03:05:02;;;;;;;;;3.25;3.25;;;;;;;;5058977;28;45702;-78
2021/09/11 03:07:27;;;;;;;;;4.50;3.75;;;;;;;;5060644;28;45900;-79
2021/09/11 03:09:52;;;;;;;;;3.00;3.00;;;;;;;;5059219;28;45336;-78
2021/09/11 03:12:18;;;;;;;;;4.33;3.00;;;;;;;;5061600;28;45435;-78
2021/09/11 03:14:43;;;;;;;;;3.50;3.50;;;;;;;;5061352;28;45696;-78
2021/09/11 03:17:08;;;;;;;;;3.33;3.33;;;;;;;;5060490;28;45443;-79
2021/09/11 03:19:33;;;;;;;;;2.33;2.33;;;;;;;;5060112;28;45257;-78
2021/09/11 03:21:59;;;;;;;;;3.67;3.67;;;;;;;;5060648;28;45706;-79
2021/09/11 03:24:24;;;;;;;;;4.00;4.00;;;;;;;;5058879;28;45610;-79
2021/09/11 03:26:49;;;;;;;;;3.50;3.50;;;;;;;;5060315;28;45435;-78
2021/09/11 03:29:14;;;;;;;;;3.00;3.00;;;;;;;;5060075;28;45419;-78
2021/09/11 03:31:40;;;;;;;;;7.00;4.00;;;;;;;;5060146;28;45386;-78
2021/09/11 03:34:05;;;;;;;;;4.00;4.00;;;;;;;;5059652;28;45574;-78
2021/09/11 03:36:30;;;;;;;;;4.67;3.00;;;;;;;;5058869;28;46081;-78
2021/09/11 03:38:55;;;;;;;;;3.50;1.75;;;;;;;;5059894;28;45374;-78
2021/09/11 03:41:20;;;;;;;;;5.00;3.00;;;;;;;;5060272;28;45432;-78
2021/09/11 03:43:46;;;;;;;;;4.67;3.00;;;;;;;;5059988;28;45680;-78
2021/09/11 03:46:11;;;;;;;;;2.67;2.67;;;;;;;;5060073;28;45354;-78
2021/09/11 03:48:36;;;;;;;;;4.67;2.67;;;;;;;;5059668;28;45421;-78
2021/09/11 03:51:02;;;;;;;;;4.00;3.00;;;;;;;;5058810;28;45363;-78
2021/09/11 03:53:28;;;;;;;;;2.25;2.25;;;;;;;;5059799;28;45335;-78
2021/09/11 03:55:53;;;;;;;;;3.75;2.25;;;;;;;;5065090;28;46175;-78
2021/09/11 03:58:18;;;;;;;;;2.00;2.00;;;;;;;;5064158;28;45398;-78
2021/09/11 04:00:43;;;;;;;;;3.00;3.00;;;;;;;;5057981;28;45366;-78
2021/09/11 04:03:09;;;;;;;;;4.33;2.67;;;;;;;;5059225;28;45584;-78
2021/09/11 04:05:34;;;;;;;;;3.00;2.00;;;;;;;;5059700;28;46238;-78
2021/09/11 04:07:59;;;;;;;;;3.00;3.00;;;;;;;;5059917;28;45267;-78
2021/09/11 04:10:24;;;;;;;;;2.33;2.33;;;;;;;;5068677;28;45260;-78
2021/09/11 04:12:49;;;;;;;;;3.00;3.00;;;;;;;;5077987;28;45291;-78
2021/09/11 04:15:15;;;;;;;;;2.67;2.67;;;;;;;;5059673;28;46146;-78
2021/09/11 04:17:40;;;;;;;;;3.00;3.00;;;;;;;;5061630;28;45232;-78
2021/09/11 04:20:06;;;;;;;;;3.00;3.00;;;;;;;;5063273;28;45366;-78
2021/09/11 04:22:31;;;;;;;;;2.00;2.00;;;;;;;;5064167;28;45405;-78
2021/09/11 04:24:56;;;;;;;;;1.50;1.50;;;;;;;;5066240;28;46114;-78
2021/09/11 04:27:21;;;;;;;;;2.00;2.00;;;;;;;;5065141;28;45297;-78
2021/09/11 04:29:47;;;;;;;;;2.00;2.00;;;;;;;;5062023;28;45418;-78
2021/09/11 04:32:12;;;;;;;;;2.25;2.25;;;;;;;;5062899;28;45331;-78
2021/09/11 04:34:37;;;;;;;;;2.00;2.00;;;;;;;;5061327;28;47029;-78
2021/09/11 04:37:02;;;;;;;;;3.75;2.25;;;;;;;;5062903;28;46129;-78
2021/09/11 04:39:28;;;;;;;;;3.50;2.75;;;;;;;;5063216;28;45158;-78
2021/09/11 04:41:53;;;;;;;;;4.67;2.00;;;;;;;;5062881;28;45254;-78
2021/09/11 04:44:18;;;;;;;;;2.00;2.00;;;;;;;;5062903;28;45345;-78
2021/09/11 04:46:43;;;;;;;;;3.00;1.67;;;;;;;;5062551;28;45314;-78
2021/09/11 04:49:08;;;;;;;;;1.67;1.00;;;;;;;;5062617;28;45224;-78
2021/09/11 04:51:34;;;;;;;;;1.00;1.00;;;;;;;;5061342;28;45239;-78
2021/09/11 04:53:59;;;;;;;;;2.00;2.00;;;;;;;;5061268;28;47486;-78
2021/09/11 04:56:24;;;;;;;;;3.00;2.67;;;;;;;;5072240;28;45482;-78
2021/09/11 04:58:49;;;;;;;;;3.00;2.00;;;;;;;;5061178;28;45335;-78
2021/09/11 05:01:15;;;;;;;;;3.33;3.00;;;;;;;;5061445;28;45397;-78
2021/09/11 05:03:40;;;;;;;;;3.50;2.00;;;;;;;;5061822;28;46388;-78
2021/09/11 05:06:05;;;;;;;;;2.67;2.00;;;;;;;;5061035;28;45389;-78
2021/09/11 05:08:30;;;;;;;;;2.67;2.33;;;;;;;;5061076;28;45420;-78
2021/09/11 05:10:55;;;;;;;;;3.00;2.33;;;;;;;;5075596;28;45469;-78
2021/09/11 05:13:21;;;;;;;;;3.00;3.00;;;;;;;;5074631;28;48118;-78
2021/09/11 05:15:46;;;;;;;;;3.00;2.67;;;;;;;;5061156;28;45422;-78
2021/09/11 05:18:11;;;;;;;;;4.00;2.67;;;;;;;;5060822;28;45445;-77
2021/09/11 05:20:36;;;;;;;;;2.00;2.00;;;;;;;;5061432;28;45378;-79
2021/09/11 05:23:02;;;;;;;;;2.67;2.00;;;;;;;;5060524;28;47058;-78
2021/09/11 05:25:27;;;;;;;;;3.00;1.75;;;;;;;;5062111;28;45461;-79
2021/09/11 05:27:53;;;;;;;;;2.50;2.00;;;;;;;;5060242;28;45318;-78
2021/09/11 05:30:19;;;;;;;;;4.25;2.75;;;;;;;;5061406;28;45335;-78
2021/09/11 05:32:44;;;;;;;;;3.25;3.00;;;;;;;;5061739;28;45425;-78
2021/09/11 05:35:10;;;;;;;;;5.00;3.50;;;;;;;;5061979;28;45149;-78
2021/09/11 05:37:35;;;;;;;;;3.00;1.25;;;;;;;;5061978;28;45444;-78
2021/09/11 05:40:00;;;;;;;;;3.67;3.00;;;;;;;;5062083;28;45290;-78
2021/09/11 05:42:25;;;;;;;;;2.50;2.50;;;;;;;;5061591;28;45340;-78
2021/09/11 05:44:51;;;;;;;;;3.00;3.00;;;;;;;;5060497;28;45189;-79
2021/09/11 05:47:16;;;;;;;;;1.00;1.00;;;;;;;;5061681;28;45562;-79
2021/09/11 05:49:41;;;;;;;;;3.50;3.00;;;;;;;;5060412;28;46072;-79
2021/09/11 05:52:06;;;;;;;;;3.33;2.00;;;;;;;;5060231;28;46969;-79
2021/09/11 05:54:32;;;;;;;;;3.00;3.00;;;;;;;;5060420;28;45344;-79
2021/09/11 05:56:57;;;;;;;;;2.00;2.00;;;;;;;;5069914;28;45506;-78
2021/09/11 05:59:22;;;;;;;;;2.00;2.00;;;;;;;;5061556;28;45688;-78
2021/09/11 06:01:47;;;;;;;;;3.67;2.00;;;;;;;;5060350;28;46085;-78
2021/09/11 06:04:12;;;;;;;;;3.50;2.50;;;;;;;;5063192;28;45145;-78
2021/09/11 06:06:38;;;;;;;;;2.50;2.50;;;;;;;;5061992;28;45210;-78
2021/09/11 06:09:03;;;;;;;;;2.50;2.50;;;;;;;;5061684;28;45294;-78
2021/09/11 06:11:28;;;;;;;;;3.25;2.25;;;;;;;;5078930;28;45299;-78
2021/09/11 06:13:53;;;;;;;;;4.00;3.00;;;;;;;;5070761;28;45300;-78
2021/09/11 06:16:19;;;;;;;;;3.75;2.75;;;;;;;;5061249;28;45272;-78
2021/09/11 06:18:44;;;;;;;;;5.33;4.67;;;;;;;;5061029;28;45551;-79
2021/09/11 06:21:09;;;;;;;;;3.00;3.00;;;;;;;;5060803;28;46282;-79
2021/09/11 06:23:34;;;;;;;;;3.00;3.00;;;;;;;;5064072;28;46161;-79
2021/09/11 06:26:00;;;;;;;;;2.50;2.50;;;;;;;;5079139;28;45381;-79
2021/09/11 06:28:26;;;;;;;;;4.00;2.25;;;;;;;;5081388;28;45448;-79
2021/09/11 06:30:51;;;;;;;;;1.25;1.00;;;;;;;;5068576;28;48098;-79
2021/09/11 06:33:16;;;;;;;;;4.67;2.00;;;;;;;;5077517;28;45310;-79
2021/09/11 06:35:42;;;;;;;;;2.25;2.00;;;;;;;;5068887;28;45395;-81
2021/09/11 06:38:07;;;;;;;;;2.25;1.00;;;;;;;;5068654;28;45428;-79
2021/09/11 06:40:32;;;;;;;;;1.00;1.00;;;;;;;;5066070;28;46153;-79
2021/09/11 06:42:58;;;;;;;;;2.00;2.00;;;;;;;;5070950;28;45423;-79
2021/09/11 06:45:23;;;;;;;;;1.50;0.75;;;;;;;;5068709;28;45397;-80
2021/09/11 06:47:48;;;;;;;;;1.25;1.25;;;;;;;;5061521;28;45418;-80
2021/09/11 06:50:14;;;;;;;;;2.00;2.00;;;;;;;;5067040;28;45539;-80
2021/09/11 06:52:39;;;;;;;;;1.00;1.00;;;;;;;;5071274;28;45295;-80
2021/09/11 06:55:04;;;;;;;;;2.00;2.00;;;;;;;;5066824;28;45339;-80
2021/09/11 06:57:29;;;;;;;;;4.00;1.25;;;;;;;;5068883;28;45697;-80
2021/09/11 06:59:55;;;;;;;;;2.00;2.00;;;;;;;;5072564;28;45474;-80
2021/09/11 07:02:20;;;;;;;;;5.33;2.67;;;;;;;;5080147;28;45328;-80
2021/09/11 07:04:45;;;;;;;;;0.67;0.67;;;;;;;;5080642;28;45383;-80
2021/09/11 07:07:10;;;;;;;;;1.67;1.67;;;;;;;;5080663;28;45630;-81
2021/09/11 07:09:36;;;;;;;;;2.67;2.00;;;;;;;;5070667;28;46522;-80
2021/09/11 07:12:01;;;;;;;;;2.00;2.00;;;;;;;;5065479;28;45476;-81
2021/09/11 07:14:26;;;;;;;;;2.75;1.75;;;;;;;;5068546;28;45181;-81
2021/09/11 07:16:52;;;;;;;;;2.00;1.75;;;;;;;;5060138;28;45311;-81
2021/09/11 07:19:17;;;;;;;;;3.00;2.00;;;;;;;;5063305;28;46419;-80
2021/09/11 07:21:43;;;;;;;;;2.25;0.75;;;;;;;;5060050;28;45235;-79
2021/09/11 07:24:08;;;;;;;;;5.00;1.25;;;;;;;;5059042;28;45317;-80
2021/09/11 07:26:34;;;;;;;;;0.75;0.75;;;;;;;;5061010;28;45287;-79
2021/09/11 07:28:59;;;;;;;;;2.75;1.75;;;;;;;;5059685;28;47358;-79
2021/09/11 07:31:24;;;;;;;;;4.75;1.00;;;;;;;;5058683;28;45403;-80
2021/09/11 07:33:50;;;;;;;;;1.25;1.00;;;;;;;;5060077;28;45383;-80
2021/09/11 07:36:15;;;;;;;;;2.50;2.00;;;;;;;;5060057;28;45424;-80
2021/09/11 07:38:40;;;;;;;;;3.75;1.25;;;;;;;;5060104;28;46089;-80
2021/09/11 07:41:06;;;;;;;;;1.25;0.50;;;;;;;;5059979;28;45459;-80
2021/09/11 07:43:31;;;;;;;;;0.00;0.00;;;;;;;;5060530;28;45528;-80
2021/09/11 07:45:57;;;;;;;;;0.00;0.00;;;;;;;;5060217;28;46354;-80
2021/09/11 07:48:22;;;;;;;;;0.25;0.25;;;;;;;;5058474;28;46979;-80
2021/09/11 07:50:47;;;;;;;;;1.00;1.00;;;;;;;;5059351;28;45389;-82
2021/09/11 07:53:14;;;;;;;;;1.00;1.00;;;;;;;;5059295;28;45378;-82
2021/09/11 07:55:40;;;;;;;;;0.50;0.00;;;;;;;;5061947;28;45406;-82
2021/09/11 07:58:05;;;;;;;;;0.50;0.50;;;;;;;;5068070;28;45976;-81
2021/09/11 08:00:30;;;;;;;;;0.50;0.50;;;;;;;;5059295;28;45218;-82
2021/09/11 08:02:57;;;;;;;;;0.25;0.00;;;;;;;;5068556;27;45449;-82
2021/09/11 08:05:22;;;;;;;;;0.00;0.00;;;;;;;;5074096;27;45334;-81
2021/09/11 08:07:49;;;;;;;;;0.50;0.50;;;;;;;;5060375;28;45291;-81
2021/09/11 08:10:14;;;;;;;;;0.00;0.00;;;;;;;;5071256;27;45439;-82
2021/09/11 08:12:40;;;;;;;;;0.00;0.00;;;;;;;;5097374;27;45450;-81
2021/09/11 08:15:06;;;;;;;;;1.75;1.00;;;;;;;;5067554;28;45331;-83
2021/09/11 08:17:31;;;;;;;;;0.00;0.00;;;;;;;;5076973;27;45316;-82
2021/09/11 08:19:56;;;;;;;;;3.00;0.00;;;;;;;;5068576;27;45333;-82
2021/09/11 08:22:22;;;;;;;;;0.75;0.00;;;;;;;;5094668;27;45380;-82
2021/09/11 08:24:47;;;;;;;;;0.50;0.50;;;;;;;;5070209;27;45398;-82
2021/09/11 08:27:12;;;;;;;;;0.25;0.25;;;;;;;;5064196;27;46436;-82
2021/09/11 08:29:38;;;;;;;;;0.00;0.00;;;;;;;;5089646;27;45440;-82
2021/09/11 08:32:03;;;;;;;;;2.75;0.25;;;;;;;;5085457;27;45298;-82
2021/09/11 08:34:28;;;;;;;;;1.75;0.50;;;;;;;;5065833;27;45489;-82
2021/09/11 08:36:54;;;;;;;;;1.50;0.00;;;;;;;;5059400;27;45351;-82
2021/09/11 08:39:19;;;;;;;;;0.00;0.00;;;;;;;;5078674;27;45511;-82
2021/09/11 08:41:46;;;;;;;;;0.25;0.00;;;;;;;;5079260;27;45331;-82
2021/09/11 08:44:11;;;;;;;;;2.00;0.00;;;;;;;;5060201;27;45634;-82
2021/09/11 08:46:37;;;;;;;;;0.25;0.25;;;;;;;;5080584;27;45350;-82
2021/09/11 08:49:03;;;;;;;;;0.00;0.00;;;;;;;;5075943;27;45242;-82
2021/09/11 08:51:28;;;;;;;;;0.00;0.00;;;;;;;;5070332;27;45376;-81
2021/09/11 08:53:53;;;;;;;;;1.00;0.25;;;;;;;;5069997;27;45272;-81
2021/09/11 08:56:19;;;;;;;;;0.00;0.00;;;;;;;;5083796;27;46636;-82
2021/09/11 08:58:44;;;;;;;;;0.75;0.00;;;;;;;;5064778;27;46205;-82
2021/09/11 09:01:09;;;;;;;;;0.00;0.00;;;;;;;;5075536;27;45407;-82
2021/09/11 09:03:36;;;;;;;;;0.00;0.00;;;;;;;;5075934;27;45429;-82
2021/09/11 09:06:11;;;;;;;;;0.00;0.00;;;;;;;;5082024;27;47810;-82
2021/09/11 09:08:36;;;;;;;;;0.00;0.00;;;;;;;;5074482;27;45299;-82
2021/09/11 09:11:20;;;;;;;;;0.00;0.00;;;;;;;;5070259;28;45400;-81
2021/09/11 09:13:50;;;;;;;;;0.00;0.00;;;;;;;;5069895;28;45484;-82
2021/09/11 09:16:16;;;;;;;;;0.25;0.25;;;;;;;;5072901;28;45401;-82
2021/09/11 09:18:41;;;;;;;;;0.25;0.00;;;;;;;;5071951;28;45288;-82
2021/09/11 09:21:35;;;;;;;;;1.25;0.25;;;;;;;;5062474;28;45502;-83
2021/09/11 09:24:02;;;;;;;;;1.00;0.00;;;;;;;;5068973;27;45673;-81
2021/09/11 09:26:28;;;;;;;;;1.50;1.00;;;;;;;;5062047;28;46620;-81
2021/09/11 09:29:09;;;;;;;;;2.50;1.25;;;;;;;;5062900;28;44689;-81
2021/09/11 09:31:35;;;;;;;;;1.25;1.25;;;;;;;;5062251;28;45210;-81
2021/09/11 09:34:00;;;;;;;;;1.75;1.50;;;;;;;;5061934;28;45170;-81
2021/09/11 09:36:29;;;;;;;;;2.50;0.75;;;;;;;;5061917;28;46445;-83
2021/09/11 09:39:02;;;;;;;;;0.75;0.00;;;;;;;;5063693;28;45882;-81
2021/09/11 09:41:40;;;;;;;;;2.00;0.25;;;;;;;;5067765;28;45243;-80
2021/09/11 09:44:05;;;;;;;;;2.00;1.00;;;;;;;;5069316;28;45473;-80
2021/09/11 09:46:36;;;;;;;;;2.00;0.75;;;;;;;;5066930;28;47460;-82
2021/09/11 09:49:02;;;;;;;;;3.00;1.50;;;;;;;;5068282;28;45343;-82
2021/09/11 09:51:27;;;;;;;;;0.75;0.75;;;;;;;;5069835;28;45243;-81
2021/09/11 09:53:52;;;;;;;;;1.25;0.00;;;;;;;;5067885;28;45308;-81
2021/09/11 09:56:18;;;;;;;;;1.00;1.00;;;;;;;;5071030;28;46111;-81
2021/09/11 09:58:43;;;;;;;;;2.25;2.00;;;;;;;;5070169;28;45425;-81
2021/09/11 10:01:08;;;;;;;;;0.00;0.00;;;;;;;;5069203;28;45321;-81
2021/09/11 10:03:34;;;;;;;;;1.00;1.00;;;;;;;;5065741;28;45653;-80
2021/09/11 10:06:25;;;;;;;;;1.00;1.00;;;;;;;;5066557;28;47309;-81
2021/09/11 10:08:52;;;;;;;;;2.00;0.75;;;;;;;;5067771;28;45251;-80
2021/09/11 10:11:18;;;;;;;;;1.50;1.50;;;;;;;;5069091;28;45384;-81
2021/09/11 10:13:57;;;;;;;;;0.25;0.25;;;;;;;;5074561;28;45543;-81
2021/09/11 10:16:29;;;;;;;;;4.00;3.00;;;;;;;;5059629;28;47970;-81
2021/09/11 10:18:55;;;;;;;;;0.75;0.75;;;;;;;;5062943;28;46017;-81
2021/09/11 10:21:39;;;;;;;;;2.00;2.00;;;;;;;;5069907;28;45391;-82
2021/09/11 10:24:13;;;;;;;;;0.25;0.25;;;;;;;;5069118;28;45481;-81
2021/09/11 10:26:41;;;;;;;;;1.75;0.50;;;;;;;;5068644;28;45782;-82
2021/09/11 10:29:25;;;;;;;;;2.50;1.75;;;;;;;;5060234;28;45537;-82
2021/09/11 10:31:57;;;;;;;;;6.00;1.00;;;;;;;;5072897;28;45703;-81
2021/09/11 10:34:43;;;;;;;;;2.00;2.00;;;;;;;;5068805;28;45316;-82
2021/09/11 10:37:08;;;;;;;;;1.00;1.00;;;;;;;;5065431;28;45732;-82
2021/09/11 10:39:34;;;;;;;;;2.25;1.00;;;;;;;;5059564;28;45241;-82
2021/09/11 10:42:06;;;;;;;;;1.75;1.75;;;;;;;;5059991;28;45319;-85
2021/09/11 10:44:31;;;;;;;;;2.50;1.00;;;;;;;;5059719;28;45374;-81
2021/09/11 10:46:56;;;;;;;;;1.00;1.00;;;;;;;;5058403;28;47941;-81
2021/09/11 10:49:32;;;;;;;;;3.75;2.00;;;;;;;;5059832;28;45447;-80
2021/09/11 10:52:06;;;;;;;;;1.00;1.00;;;;;;;;5060928;28;45284;-81
2021/09/11 10:54:37;;;;;;;;;1.25;1.00;;;;;;;;5060695;28;45520;-83
2021/09/11 10:57:04;;;;;;;;;2.50;2.50;;;;;;;;5062194;28;48281;-83
2021/09/11 10:59:42;;;;;;;;;4.75;2.50;;;;;;;;5073035;28;45330;-83
2021/09/11 11:02:34;;;;;;;;;2.00;2.00;;;;;;;;5058632;28;45539;-83
2021/09/11 11:05:05;;;;;;;;;4.00;3.00;;;;;;;;5058930;28;46262;-84
2021/09/11 11:07:31;;;;;;;;;2.50;2.50;;;;;;;;5059194;27;47329;-83
2021/09/11 11:10:02;;;;;;;;;3.00;3.00;;;;;;;;5078736;28;45809;-83
2021/09/11 11:12:28;;;;;;;;;3.75;3.75;;;;;;;;5080702;28;45177;-84
2021/09/11 11:14:55;;;;;;;;;6.00;3.00;;;;;;;;5070848;28;45212;-83
2021/09/11 11:17:21;;;;;;;;;4.25;2.00;;;;;;;;5063889;28;46031;-82
2021/09/11 11:19:48;;;;;;;;;4.00;2.00;;;;;;;;5059744;28;45391;-81
2021/09/11 11:22:14;;;;;;;;;1.25;1.00;;;;;;;;5060651;28;45421;-81
2021/09/11 11:24:41;;;;;;;;;1.00;1.00;;;;;;;;5059171;28;45173;-81
2021/09/11 11:27:08;;;;;;;;;3.25;1.75;;;;;;;;5069752;28;45676;-81
2021/09/11 11:29:33;;;;;;;;;2.00;1.00;;;;;;;;5070179;28;45292;-82
2021/09/11 11:32:00;;;;;;;;;2.00;1.50;;;;;;;;5061573;28;45288;-84
2021/09/11 11:34:25;;;;;;;;;2.00;2.00;;;;;;;;5061386;28;45444;-82
2021/09/11 11:36:55;;;;;;;;;3.00;2.75;;;;;;;;5061080;28;46042;-82
2021/09/11 11:39:25;;;;;;;;;1.50;1.25;;;;;;;;5059432;28;45279;-82
2021/09/11 11:41:54;;;;;;;;;4.50;3.00;;;;;;;;5059530;28;45394;-82
2021/09/11 11:44:20;;;;;;;;;4.00;3.00;;;;;;;;5059010;28;45311;-82
2021/09/11 11:46:46;;;;;;;;;4.00;3.00;;;;;;;;5058884;28;46439;-82
2021/09/11 11:49:12;;;;;;;;;4.25;3.00;;;;;;;;5060190;28;45303;-82
2021/09/11 11:51:37;;;;;;;;;6.50;4.25;;;;;;;;5060292;28;45157;-82
2021/09/11 11:54:03;;;;;;;;;3.00;3.00;;;;;;;;5060173;28;45223;-82
2021/09/11 11:56:28;;;;;;;;;3.25;3.25;;;;;;;;5065480;28;45287;-82
2021/09/11 11:58:59;;;;;;;;;2.67;1.33;;;;;;;;5069632;28;45347;-82
2021/09/11 12:01:30;;;;;;;;;2.25;2.25;;;;;;;;5079893;28;45395;-81
2021/09/11 12:03:55;;;;;;;;;5.50;5.00;;;;;;;;5080300;28;45584;-81
2021/09/11 12:06:21;;;;;;;;;4.50;4.25;;;;;;;;5080278;28;46296;-81
2021/09/11 12:08:48;;;;;;;;;3.00;3.00;;;;;;;;5073738;28;45330;-79
2021/09/11 12:11:20;;;;;;;;;2.00;2.00;;;;;;;;5073440;27;45487;-79
2021/09/11 12:13:46;;;;;;;;;4.75;4.50;;;;;;;;5067230;28;45484;-81
2021/09/11 12:16:11;;;;;;;;;2.00;2.00;;;;;;;;5060012;28;45536;-81
2021/09/11 12:18:37;;;;;;;;;5.33;4.00;;;;;;;;5060007;28;45374;-81
2021/09/11 12:21:07;;;;;;;;;2.00;2.00;;;;;;;;5059994;28;45432;-81
2021/09/11 12:23:34;;;;;;;;;2.50;1.75;;;;;;;;5059625;28;45239;-80
2021/09/11 12:26:04;;;;;;;;;5.50;3.75;;;;;;;;5059856;28;45398;-81
2021/09/11 12:28:41;;;;;;;;;5.25;3.00;;;;;;;;5062883;28;45554;-79
2021/09/11 12:31:06;;;;;;;;;2.00;2.00;;;;;;;;5062484;28;45315;-80
2021/09/11 12:33:50;;;;;;;;;2.75;2.75;;;;;;;;5061160;28;45431;-79
2021/09/11 12:36:28;;;;;;;;;3.75;3.75;;;;;;;;5059355;28;45354;-80
2021/09/11 12:38:55;;;;;;;;;3.00;3.00;;;;;;;;5062173;28;45480;-79
2021/09/11 12:41:20;;;;;;;;;3.00;3.00;;;;;;;;5062988;28;45548;-80
2021/09/11 12:43:46;;;;;;;;;2.50;2.50;;;;;;;;5066335;28;45247;-80
2021/09/11 12:46:13;;;;;;;;;2.00;2.00;;;;;;;;5068676;28;46906;-80
2021/09/11 12:48:39;;;;;;;;;2.00;2.00;;;;;;;;5070292;28;45455;-80
2021/09/11 12:51:04;;;;;;;;;3.00;3.00;;;;;;;;5071149;28;45421;-80
2021/09/11 12:53:30;;;;;;;;;2.25;2.25;;;;;;;;5073964;28;45355;-80
2021/09/11 12:55:56;;;;;;;;;5.25;3.75;;;;;;;;5072351;28;46355;-79
2021/09/11 12:58:21;;;;;;;;;2.50;2.00;;;;;;;;5069074;28;45354;-79
2021/09/11 13:00:47;;;;;;;;;3.25;3.00;;;;;;;;5068596;28;45228;-79
2021/09/11 13:03:12;;;;;;;;;3.33;2.00;;;;;;;;5065828;28;45900;-79
2021/09/11 13:05:37;;;;;;;;;2.00;2.00;;;;;;;;5070549;28;45443;-79
2021/09/11 13:08:02;;;;;;;;;2.00;2.00;;;;;;;;5068613;28;45427;-79
2021/09/11 13:10:27;;;;;;;;;2.75;1.50;;;;;;;;5071487;28;45531;-79
2021/09/11 13:12:53;;;;;;;;;6.33;2.00;;;;;;;;5070162;28;45184;-79
2021/09/11 13:15:18;;;;;;;;;4.00;2.00;;;;;;;;5070942;28;45208;-79
2021/09/11 13:17:43;;;;;;;;;2.33;2.33;;;;;;;;5067958;28;45337;-79
2021/09/11 13:20:09;;;;;;;;;2.50;2.50;;;;;;;;5069909;28;45354;-79
2021/09/11 13:22:34;;;;;;;;;2.50;1.25;;;;;;;;5068815;27;45975;-79
2021/09/11 13:24:59;;;;;;;;;3.00;3.00;;;;;;;;5075933;27;45777;-79
2021/09/11 13:27:24;;;;;;;;;3.50;2.00;;;;;;;;5085949;27;45455;-79
2021/09/11 13:29:49;;;;;;;;;2.67;2.33;;;;;;;;5078628;27;45547;-79
2021/09/11 13:32:15;;;;;;;;;3.67;2.00;;;;;;;;5084973;27;45649;-79
2021/09/11 13:34:40;;;;;;;;;2.67;2.33;;;;;;;;5071249;27;45596;-79
2021/09/11 13:37:05;;;;;;;;;3.00;3.00;;;;;;;;5067366;27;45446;-79
2021/09/11 13:39:30;;;;;;;;;3.75;2.25;;;;;;;;5082791;27;45421;-79
2021/09/11 13:41:56;;;;;;;;;2.00;2.00;;;;;;;;5070068;27;45373;-79
2021/09/11 13:44:21;;;;;;;;;2.00;2.00;;;;;;;;5063825;27;45550;-79
2021/09/11 13:46:47;;;;;;;;;3.00;2.00;;;;;;;;5089791;27;45400;-80
2021/09/11 13:49:12;;;;;;;;;2.25;2.25;;;;;;;;5081626;27;45425;-78
2021/09/11 13:51:38;;;;;;;;;2.75;2.75;;;;;;;;5065470;27;45375;-79
2021/09/11 13:54:04;;;;;;;;;2.75;2.75;;;;;;;;5084653;27;46969;-78
2021/09/11 13:56:29;;;;;;;;;3.00;3.00;;;;;;;;5076844;27;45460;-78
2021/09/11 13:58:54;;;;;;;;;5.00;3.33;;;;;;;;5089423;27;45423;-78
2021/09/11 14:01:19;;;;;;;;;3.33;2.00;;;;;;;;5079429;27;45464;-78
2021/09/11 14:03:44;;;;;;;;;2.00;2.00;;;;;;;;5081181;27;46269;-78
2021/09/11 14:06:10;;;;;;;;;2.00;2.00;;;;;;;;5078379;27;44722;-78
2021/09/11 14:08:36;;;;;;;;;2.00;2.00;;;;;;;;5065421;27;45413;-79
2021/09/11 14:11:02;;;;;;;;;2.00;2.00;;;;;;;;5070526;27;45559;-78
2021/09/11 14:13:27;;;;;;;;;2.00;2.00;;;;;;;;5077824;27;47249;-78
2021/09/11 14:15:52;;;;;;;;;2.50;2.50;;;;;;;;5083867;27;45242;-79
2021/09/11 14:18:18;;;;;;;;;2.00;2.00;;;;;;;;5071727;27;45261;-78
2021/09/11 14:20:43;;;;;;;;;2.00;2.00;;;;;;;;5072593;27;45414;-78
2021/09/11 14:23:09;;;;;;;;;4.00;1.75;;;;;;;;5094619;27;48584;-78
2021/09/11 14:25:34;;;;;;;;;3.25;2.25;;;;;;;;5085539;27;45432;-79
2021/09/11 14:28:00;;;;;;;;;4.50;3.00;;;;;;;;5065449;27;45324;-78
2021/09/11 14:30:25;;;;;;;;;1.75;1.75;;;;;;;;5086196;27;45342;-78
2021/09/11 14:32:50;;;;;;;;;3.00;3.00;;;;;;;;5093510;27;45648;-78
2021/09/11 14:35:16;;;;;;;;;3.00;3.00;;;;;;;;5076107;27;45705;-79
2021/09/11 14:37:41;;;;;;;;;5.00;3.25;;;;;;;;5062445;27;45477;-78